Terminal Aerodrome Forecast
Issued by NWS

Home | Current Version | Previous Version | Text Only | Print | Product List | Glossary On
Versions: 1 2 3 4 5 6 7 8 9 10 11 12 13 14 15 16 17 18
000
FTUS41 KBOX 241122
TAFFMH
TAF
KFMH 241122Z 2412/2512 32017G25KT P6SM SKC
     FM241500 32017G37KT P6SM FEW250
     FM242300 33014G28KT P6SM FEW250
     FM250400 33010G20KT P6SM SKC
     FM250800 33007KT P6SM SKC=

USA.gov is the U.S. government's official web portal to all federal, state and local government web resources and services.